createdAt,value
2023-03-28T00:02:51.104Z,17.58
2023-03-28T00:06:53.541Z,15.13
2023-03-28T00:11:05.941Z,11.15
2023-03-28T00:15:08.318Z,10.82
2023-03-28T00:19:12.928Z,12.45
2023-03-28T00:23:14.911Z,10.68
2023-03-28T00:27:17.794Z,12.63
2023-03-28T00:31:20.338Z,9.35
2023-03-28T00:35:22.324Z,14.55
2023-03-28T00:39:26.460Z,22.65
2023-03-28T00:43:45.420Z,20.77
2023-03-28T00:47:54.785Z,18.80
2023-03-28T00:51:59.101Z,18.83
2023-03-28T00:56:07.532Z,13.95
2023-03-28T01:00:12.328Z,16.60
2023-03-28T01:04:20.271Z,15.57
2023-03-28T01:08:26.318Z,13.20
2023-03-28T01:12:29.441Z,12.43
2023-03-28T01:16:31.810Z,13.90
2023-03-28T01:21:22.963Z,12.93
2023-03-28T01:25:54.353Z,13.05
2023-03-28T01:30:11.626Z,12.73
2023-03-28T01:34:58.001Z,12.32
2023-03-28T01:39:17.944Z,14.48
2023-03-28T01:43:34.511Z,16.52
2023-03-28T01:47:42.286Z,17.45
2023-03-28T01:51:53.024Z,14.57
2023-03-28T01:56:23.124Z,23.95
2023-03-28T02:00:37.354Z,26.75
2023-03-28T02:04:45.290Z,25.80
2023-03-28T02:08:49.701Z,26.20
2023-03-28T02:13:18.071Z,28.15
2023-03-28T02:17:27.373Z,21.45
2023-03-28T02:22:15.367Z,20.08
2023-03-28T02:26:56.962Z,17.73
2023-03-28T02:31:17.234Z,18.00
2023-03-28T02:35:27.571Z,19.02
2023-03-28T02:39:46.582Z,20.95
2023-03-28T02:43:59.078Z,15.70
2023-03-28T02:48:17.868Z,18.27
2023-03-28T02:52:35.300Z,17.27
2023-03-28T02:56:51.257Z,16.38
2023-03-28T03:01:25.442Z,20.35
2023-03-28T03:05:27.471Z,27.95
2023-03-28T03:09:29.632Z,24.13
2023-03-28T03:13:31.604Z,18.98
2023-03-28T03:17:36.982Z,37.75
2023-03-28T03:21:40.226Z,25.85
2023-03-28T03:25:43.151Z,25.77
2023-03-28T03:29:53.337Z,24.92
2023-03-28T03:34:01.856Z,24.08
2023-03-28T03:38:08.732Z,29.13
2023-03-28T03:42:11.115Z,27.90
2023-03-28T03:46:13.093Z,29.88
2023-03-28T03:50:15.222Z,30.65
2023-03-28T03:54:17.756Z,34.85
2023-03-28T03:58:20.606Z,41.55
2023-03-28T04:02:24.485Z,37.92
2023-03-28T04:06:34.882Z,38.83
2023-03-28T04:10:42.281Z,38.45
2023-03-28T04:14:44.250Z,40.28
2023-03-28T04:19:16.396Z,37.38
2023-03-28T04:23:18.506Z,34.35
2023-03-28T04:27:21.397Z,48.95
2023-03-28T04:31:29.713Z,38.75
2023-03-28T04:36:00.425Z,34.40
2023-03-28T04:40:10.815Z,38.67
2023-03-28T04:44:23.894Z,44.83
2023-03-28T04:48:33.673Z,36.80
2023-03-28T04:52:36.115Z,34.72
2023-03-28T04:56:38.649Z,41.67
2023-03-28T05:00:40.696Z,45.10
2023-03-28T05:05:09.874Z,38.83
2023-03-28T05:09:12.928Z,32.17
2023-03-28T05:13:16.158Z,32.22
2023-03-28T05:17:26.278Z,28.30
2023-03-28T05:21:42.835Z,35.25
2023-03-28T05:25:50.789Z,40.38
2023-03-28T05:33:55.527Z,40.92
2023-03-28T05:38:10.001Z,38.00
2023-03-28T05:42:12.000Z,33.08
2023-03-28T05:46:15.518Z,30.70
2023-03-28T05:50:17.817Z,30.67
2023-03-28T05:54:19.830Z,43.17
2023-03-28T05:58:21.879Z,32.15
2023-03-28T06:02:24.530Z,29.50
2023-03-28T06:10:40.609Z,33.95
2023-03-28T06:14:53.144Z,34.05
2023-03-28T06:19:14.254Z,27.77
2023-03-28T06:23:24.179Z,27.30
2023-03-28T06:27:26.228Z,37.10
2023-03-28T06:31:28.661Z,38.72
2023-03-28T06:35:33.116Z,38.88
2023-03-28T06:39:35.100Z,31.02
2023-03-28T06:43:37.100Z,49.10
2023-03-28T06:47:43.231Z,49.17
2023-03-28T06:51:45.362Z,49.10
2023-03-28T06:55:49.880Z,32.28
2023-03-28T06:59:52.599Z,36.92
2023-03-28T07:04:02.567Z,38.45
2023-03-28T07:08:06.817Z,32.13
2023-03-28T07:12:08.776Z,35.60
2023-03-28T07:16:13.309Z,34.58
2023-03-28T07:20:15.595Z,36.58
2023-03-28T07:24:18.785Z,37.55
2023-03-28T07:28:30.229Z,35.80
2023-03-28T07:32:39.198Z,39.20
2023-03-28T07:36:53.422Z,35.92
2023-03-28T07:41:14.890Z,37.30
2023-03-28T07:45:17.029Z,32.80
2023-03-28T07:49:21.129Z,27.02
2023-03-28T07:53:23.571Z,32.08
2023-03-28T07:57:25.940Z,34.03
2023-03-28T08:01:33.525Z,39.92
2023-03-28T08:05:39.420Z,38.38
2023-03-28T08:09:41.942Z,34.22
2023-03-28T08:13:51.741Z,32.65
2023-03-28T08:17:58.029Z,30.90
2023-03-28T08:22:02.789Z,33.42
2023-03-28T08:26:11.131Z,36.72
2023-03-28T08:30:15.812Z,32.72
2023-03-28T08:34:29.789Z,28.58
2023-03-28T08:38:34.660Z,31.23
2023-03-28T08:42:49.068Z,28.02
2023-03-28T08:46:58.108Z,25.75
2023-03-28T08:51:06.650Z,26.17
2023-03-28T08:55:35.491Z,23.40
2023-03-28T08:59:48.831Z,20.48
2023-03-28T09:03:51.241Z,15.43
2023-03-28T09:08:31.865Z,14.13
2023-03-28T09:13:17.750Z,17.88
2023-03-28T09:17:31.964Z,13.13
2023-03-28T09:21:50.305Z,13.57
2023-03-28T09:26:05.961Z,10.35
2023-03-28T09:30:19.015Z,6.45
2023-03-28T09:34:28.920Z,13.68
2023-03-28T09:38:39.732Z,7.22
2023-03-28T09:43:01.166Z,14.70
2023-03-28T09:47:12.633Z,12.77
2023-03-28T09:51:21.054Z,22.58
2023-03-28T09:55:26.953Z,26.73
2023-03-28T09:59:31.900Z,37.53
2023-03-28T10:03:52.083Z,28.23
2023-03-28T10:07:58.359Z,27.23
2023-03-28T10:12:10.501Z,30.00
2023-03-28T10:16:19.216Z,27.45
2023-03-28T10:20:41.551Z,28.35
2023-03-28T10:24:47.124Z,36.25
2023-03-28T10:28:54.627Z,33.08
2023-03-28T10:33:17.293Z,32.30
2023-03-28T10:37:41.916Z,34.53
2023-03-28T10:41:55.356Z,30.60
2023-03-28T10:46:18.920Z,23.23
2023-03-28T10:50:46.231Z,20.45
2023-03-28T10:54:53.883Z,22.40
2023-03-28T10:59:30.970Z,15.45
2023-03-28T11:03:55.106Z,14.73
2023-03-28T11:08:34.601Z,12.45
2023-03-28T11:12:59.104Z,8.35
2023-03-28T11:17:16.395Z,8.88
2023-03-28T11:21:46.776Z,13.15
2023-03-28T11:26:04.240Z,6.32
2023-03-28T11:30:34.340Z,7.35
2023-03-28T11:39:34.294Z,21.27
2023-03-28T11:43:56.059Z,20.70
2023-03-28T11:48:08.333Z,11.00
2023-03-28T11:52:28.326Z,11.50
2023-03-28T11:56:48.904Z,13.30
2023-03-28T12:01:14.965Z,8.98
2023-03-28T12:05:26.680Z,6.22
2023-03-28T12:09:44.338Z,5.85
2023-03-28T12:14:01.407Z,4.60
2023-03-28T12:18:30.280Z,7.20
2023-03-28T12:22:42.895Z,8.52
2023-03-28T12:27:23.580Z,7.47
2023-03-28T12:31:31.280Z,8.93
2023-03-28T12:35:51.343Z,8.25
2023-03-28T12:40:15.531Z,9.25
2023-03-28T12:44:24.467Z,12.48
2023-03-28T12:48:41.355Z,4.10
2023-03-28T12:52:46.716Z,7.05
2023-03-28T12:57:21.013Z,5.00
2023-03-28T13:01:32.417Z,5.15
2023-03-28T13:06:12.740Z,3.90
2023-03-28T13:10:42.720Z,6.88
2023-03-28T13:14:59.004Z,7.65
2023-03-28T13:19:10.403Z,7.43
2023-03-28T13:23:15.264Z,4.68
2023-03-28T13:27:33.268Z,8.85
2023-03-28T13:31:42.394Z,3.17
2023-03-28T13:36:10.647Z,4.30
2023-03-28T13:40:43.005Z,5.60
2023-03-28T13:44:50.373Z,5.25
2023-03-28T13:49:01.195Z,5.57
2023-03-28T13:53:03.212Z,3.20
2023-03-28T13:57:08.469Z,4.63
2023-03-28T14:01:24.408Z,5.82
2023-03-28T14:05:29.130Z,4.63
2023-03-28T14:09:34.175Z,14.95
2023-03-28T14:13:37.769Z,11.23
2023-03-28T14:17:39.875Z,6.10
2023-03-28T14:21:41.927Z,6.95
2023-03-28T14:25:43.899Z,7.95
2023-03-28T14:29:56.129Z,6.13
2023-03-28T14:33:59.858Z,3.22
2023-03-28T14:38:07.948Z,6.10
2023-03-28T14:42:15.786Z,5.38
2023-03-28T14:46:23.597Z,9.32
2023-03-28T14:50:30.870Z,7.35
2023-03-28T14:54:37.692Z,5.80
2023-03-28T14:58:43.741Z,10.10
2023-03-28T15:02:46.910Z,10.10
2023-03-28T15:06:55.596Z,8.07
2023-03-28T15:11:03.435Z,8.25
2023-03-28T15:15:06.565Z,7.07
2023-03-28T15:19:19.167Z,6.65
2023-03-28T15:23:29.988Z,8.90
2023-03-28T15:27:34.997Z,6.18
2023-03-28T15:31:40.757Z,10.48
2023-03-28T15:35:45.717Z,7.63
2023-03-28T15:39:53.052Z,4.70
2023-03-28T15:43:55.002Z,14.77
2023-03-28T15:47:57.230Z,11.88
2023-03-28T15:52:05.547Z,8.35
2023-03-28T15:56:17.069Z,5.60
2023-03-28T16:00:37.588Z,7.97
2023-03-28T16:04:39.606Z,5.70
2023-03-28T16:09:08.854Z,3.55
2023-03-28T16:13:14.475Z,4.55
2023-03-28T16:17:42.113Z,4.38
2023-03-28T16:21:59.033Z,10.30
2023-03-28T16:26:03.733Z,7.07
2023-03-28T16:30:10.246Z,6.47
2023-03-28T16:34:12.331Z,18.63
2023-03-28T16:38:13.945Z,14.25
2023-03-28T16:42:15.874Z,20.63
2023-03-28T16:46:18.142Z,21.63
2023-03-28T16:50:20.556Z,8.10
2023-03-28T16:54:23.849Z,11.23
2023-03-28T16:58:29.104Z,10.63
2023-03-28T17:02:32.057Z,7.88
2023-03-28T17:06:34.470Z,9.82
2023-03-28T17:10:39.900Z,16.38
2023-03-28T17:14:42.345Z,10.73
2023-03-28T17:18:44.707Z,11.93
2023-03-28T17:22:46.810Z,12.50
2023-03-28T17:26:48.927Z,12.98
2023-03-28T17:30:51.289Z,10.75
2023-03-28T17:34:53.451Z,7.78
2023-03-28T17:38:57.566Z,12.55
2023-03-28T17:42:59.206Z,8.85
2023-03-28T17:47:01.323Z,11.27
2023-03-28T17:51:03.946Z,10.15
2023-03-28T17:55:06.330Z,9.30
2023-03-28T17:59:08.288Z,22.23
2023-03-28T18:03:10.320Z,13.05
2023-03-28T18:07:40.348Z,10.65
2023-03-28T18:11:44.181Z,12.70
2023-03-28T18:15:46.580Z,12.73
2023-03-28T18:19:48.827Z,12.02
2023-03-28T18:23:51.366Z,10.30
2023-03-28T18:27:53.604Z,8.55
2023-03-28T18:31:56.046Z,11.10
2023-03-28T18:35:58.333Z,7.38
2023-03-28T18:40:00.586Z,10.43
2023-03-28T18:44:03.607Z,9.10
2023-03-28T18:48:06.244Z,10.77
2023-03-28T18:52:10.552Z,14.48
2023-03-28T18:56:13.690Z,15.90
2023-03-28T19:00:18.311Z,13.45
2023-03-28T19:04:23.179Z,10.95
2023-03-28T19:08:28.735Z,11.65
2023-03-28T19:12:30.746Z,14.70
2023-03-28T19:16:32.960Z,11.45
2023-03-28T19:20:35.028Z,12.13
2023-03-28T19:24:37.561Z,11.48
2023-03-28T19:28:40.668Z,15.30
2023-03-28T19:32:42.777Z,14.88
2023-03-28T19:36:46.042Z,21.80
2023-03-28T19:40:48.418Z,14.48
2023-03-28T19:44:50.351Z,15.88
2023-03-28T19:48:52.467Z,14.38
2023-03-28T19:52:54.420Z,17.98
2023-03-28T19:56:56.441Z,13.60
2023-03-28T20:00:58.705Z,22.98
2023-03-28T20:05:00.981Z,10.90
2023-03-28T20:09:03.548Z,14.80
2023-03-28T20:13:05.592Z,12.48
2023-03-28T20:17:07.638Z,14.50
2023-03-28T20:21:11.983Z,12.65
2023-03-28T20:25:14.656Z,9.52
2023-03-28T20:29:16.862Z,10.77
2023-03-28T20:33:20.521Z,15.07
2023-03-28T20:37:23.772Z,17.08
2023-03-28T20:41:27.353Z,26.05
2023-03-28T20:45:30.493Z,14.65
2023-03-28T20:49:32.572Z,19.27
2023-03-28T20:53:34.833Z,15.10
2023-03-28T20:57:41.224Z,14.07
2023-03-28T21:01:47.762Z,13.15
2023-03-28T21:05:52.648Z,11.57
2023-03-28T21:09:55.620Z,11.80
2023-03-28T21:13:59.802Z,9.50
2023-03-28T21:18:02.471Z,12.65
2023-03-28T21:22:04.428Z,14.55
2023-03-28T21:26:08.061Z,12.50
2023-03-28T21:30:11.738Z,12.05
2023-03-28T21:34:13.714Z,9.35
2023-03-28T21:38:15.956Z,7.40
2023-03-28T21:42:17.942Z,8.50
2023-03-28T21:46:20.885Z,7.65
2023-03-28T21:50:23.493Z,6.43
2023-03-28T21:54:25.817Z,10.07
2023-03-28T21:58:29.796Z,7.78
2023-03-28T22:02:31.775Z,8.23
2023-03-28T22:06:33.804Z,9.32
2023-03-28T22:10:37.588Z,10.73
2023-03-28T22:14:39.505Z,10.80
2023-03-28T22:18:49.964Z,8.80
2023-03-28T22:22:52.687Z,8.10
2023-03-28T22:26:55.521Z,8.63
2023-03-28T22:30:57.540Z,9.90
2023-03-28T22:35:00.004Z,9.32
2023-03-28T22:39:02.035Z,11.55
2023-03-28T22:43:04.676Z,7.78
2023-03-28T22:47:06.670Z,10.75
2023-03-28T22:51:11.913Z,12.00
2023-03-28T22:55:14.091Z,9.55
2023-03-28T22:59:16.163Z,8.20
2023-03-28T23:03:18.782Z,9.45
2023-03-28T23:07:20.871Z,13.77
2023-03-28T23:11:22.910Z,18.08
2023-03-28T23:15:25.561Z,16.98
2023-03-28T23:19:31.115Z,7.97
2023-03-28T23:23:33.227Z,9.32
2023-03-28T23:27:35.596Z,9.05
2023-03-28T23:31:37.589Z,9.88
2023-03-28T23:35:42.291Z,10.80
2023-03-28T23:39:44.686Z,12.63
2023-03-28T23:43:46.671Z,9.18
2023-03-28T23:47:48.756Z,8.35
2023-03-28T23:51:50.833Z,13.25
2023-03-28T23:55:53.230Z,11.23
2023-03-28T23:59:58.275Z,9.57
